createdAt,value
2022-10-08T00:01:30.514Z,98075.58
2022-10-08T00:03:59.006Z,98073.59
2022-10-08T00:06:30.263Z,98068.92
2022-10-08T00:09:04.826Z,98066.52
2022-10-08T00:11:36.356Z,98066.21
2022-10-08T00:14:05.469Z,98063.70
2022-10-08T00:16:36.695Z,98059.97
2022-10-08T00:19:08.009Z,98059.77
2022-10-08T00:21:38.550Z,98056.25
2022-10-08T00:24:08.396Z,98052.20
2022-10-08T00:26:42.541Z,98053.98
2022-10-08T00:29:13.429Z,98052.46
2022-10-08T00:31:44.969Z,98048.53
2022-10-08T00:34:31.141Z,98044.55
2022-10-08T00:36:59.130Z,98045.89
2022-10-08T00:39:27.070Z,98047.41
2022-10-08T00:41:56.314Z,98044.50
2022-10-08T00:44:42.813Z,98039.05
2022-10-08T00:47:33.110Z,98037.34
2022-10-08T00:50:24.796Z,98034.44
2022-10-08T00:52:58.713Z,98031.48
2022-10-08T00:55:29.940Z,98030.62
2022-10-08T00:58:02.325Z,98031.15
2022-10-08T01:00:31.396Z,98027.98
2022-10-08T01:03:00.862Z,98028.04
2022-10-08T01:05:42.184Z,98027.67
2022-10-08T01:08:33.819Z,98023.81
2022-10-08T01:11:04.815Z,98021.30
2022-10-08T01:13:56.609Z,98018.61
2022-10-08T01:16:35.038Z,98019.82
2022-10-08T01:19:40.950Z,98011.95
2022-10-08T01:22:25.602Z,98012.08
2022-10-08T01:25:15.884Z,98008.49
2022-10-08T01:27:47.258Z,98010.45
2022-10-08T01:30:18.169Z,98010.25
2022-10-08T01:33:12.606Z,98011.83
2022-10-08T01:35:44.760Z,98015.16
2022-10-08T01:38:16.725Z,98013.73
2022-10-08T01:40:50.201Z,98010.80
2022-10-08T01:43:22.149Z,98010.26
2022-10-08T01:45:57.364Z,98008.27
2022-10-08T01:48:36.668Z,98008.55
2022-10-08T01:51:09.453Z,98009.97
2022-10-08T01:53:39.925Z,98012.16
2022-10-08T01:56:12.280Z,98011.71
2022-10-08T01:58:56.228Z,98011.00
2022-10-08T02:01:37.737Z,98007.04
2022-10-08T02:04:24.778Z,98005.10
2022-10-08T02:06:57.303Z,98002.30
2022-10-08T02:09:29.295Z,98000.86
2022-10-08T02:11:57.829Z,97997.02
2022-10-08T02:14:27.732Z,97997.05
2022-10-08T02:17:07.475Z,97992.14
2022-10-08T02:19:54.753Z,97999.54
2022-10-08T02:22:29.209Z,98002.95
2022-10-08T02:25:12.360Z,98004.15
2022-10-08T02:28:00.791Z,98004.19
2022-10-08T02:30:56.787Z,97999.34
2022-10-08T02:33:26.965Z,98002.02
2022-10-08T02:35:59.718Z,97999.92
2022-10-08T02:38:35.282Z,97999.57
2022-10-08T02:41:07.895Z,98002.61
2022-10-08T02:43:40.452Z,98000.48
2022-10-08T02:46:17.980Z,97993.29
2022-10-08T02:49:02.797Z,97994.41
2022-10-08T02:51:33.077Z,97993.88
2022-10-08T02:54:04.369Z,97990.41
2022-10-08T02:56:38.978Z,97990.10
2022-10-08T02:59:07.471Z,97987.00
2022-10-08T03:01:53.387Z,97987.30
2022-10-08T03:04:46.884Z,97987.11
2022-10-08T03:07:15.776Z,97985.21
2022-10-08T03:09:47.545Z,97987.07
2022-10-08T03:12:15.588Z,97987.61
2022-10-08T03:14:48.165Z,97986.70
2022-10-08T03:17:30.814Z,97987.78
2022-10-08T03:20:03.274Z,97988.17
2022-10-08T03:22:34.337Z,97989.13
2022-10-08T03:25:02.344Z,97988.70
2022-10-08T03:27:30.396Z,97987.15
2022-10-08T03:30:00.266Z,97982.86
2022-10-08T03:32:28.625Z,97983.19
2022-10-08T03:34:56.678Z,97979.90
2022-10-08T03:37:24.652Z,97982.45
2022-10-08T03:39:52.609Z,97981.86
2022-10-08T03:42:20.421Z,97983.64
2022-10-08T03:44:48.113Z,97981.48
2022-10-08T03:47:15.905Z,97975.66
2022-10-08T03:49:43.808Z,97974.67
2022-10-08T03:52:11.601Z,97978.45
2022-10-08T03:54:39.470Z,97977.80
2022-10-08T03:57:07.426Z,97977.56
2022-10-08T03:59:35.428Z,97978.89
2022-10-08T04:02:03.337Z,97978.95
2022-10-08T04:04:31.671Z,97979.98
2022-10-08T04:06:59.766Z,97977.31
2022-10-08T04:09:31.664Z,97974.54
2022-10-08T04:12:00.003Z,97973.70
2022-10-08T04:14:27.983Z,97971.20
2022-10-08T04:16:55.827Z,97970.70
2022-10-08T04:19:23.634Z,97971.73
2022-10-08T04:21:51.628Z,97973.05
2022-10-08T04:24:19.436Z,97971.50
2022-10-08T04:26:47.337Z,97969.31
2022-10-08T04:29:15.129Z,97971.39
2022-10-08T04:31:43.002Z,97973.95
2022-10-08T04:34:11.706Z,97970.50
2022-10-08T04:36:39.727Z,97966.39
2022-10-08T04:39:07.674Z,97965.95
2022-10-08T04:41:35.672Z,97968.33
2022-10-08T04:44:03.521Z,97965.52
2022-10-08T04:46:31.568Z,97969.09
2022-10-08T04:49:00.250Z,97966.83
2022-10-08T04:51:28.897Z,97963.89
2022-10-08T04:53:58.535Z,97964.84
2022-10-08T04:56:29.458Z,97961.83
2022-10-08T04:58:59.073Z,97961.95
2022-10-08T05:01:28.487Z,97962.85
2022-10-08T05:03:58.537Z,97962.95
2022-10-08T05:06:29.436Z,97955.27
2022-10-08T05:09:02.539Z,97958.50
2022-10-08T05:11:31.423Z,97960.51
2022-10-08T05:13:59.688Z,97957.60
2022-10-08T05:16:28.248Z,97955.19
2022-10-08T05:18:56.615Z,97955.17
2022-10-08T05:21:27.364Z,97954.98
2022-10-08T05:23:59.376Z,97953.30
2022-10-08T05:26:56.342Z,97954.04
2022-10-08T05:29:19.353Z,97957.23
2022-10-08T05:31:47.387Z,97954.49
2022-10-08T05:34:15.608Z,97955.95
2022-10-08T05:36:43.894Z,97958.50
2022-10-08T05:39:11.900Z,97955.71
2022-10-08T05:41:40.981Z,97954.27
2022-10-08T05:44:10.704Z,97953.27
2022-10-08T05:46:39.956Z,97955.16
2022-10-08T05:49:16.418Z,97959.56
2022-10-08T05:51:44.294Z,97960.81
2022-10-08T05:54:12.252Z,97962.15
2022-10-08T05:56:40.111Z,97959.60
2022-10-08T05:59:15.334Z,97961.77
2022-10-08T06:01:43.229Z,97965.08
2022-10-08T06:04:11.682Z,97965.27
2022-10-08T06:06:41.997Z,97969.86
2022-10-08T06:09:16.327Z,97972.40
2022-10-08T06:11:44.107Z,97973.44
2022-10-08T06:14:16.627Z,97974.49
2022-10-08T06:16:44.773Z,97969.67
2022-10-08T06:19:12.854Z,97970.38
2022-10-08T06:21:40.985Z,97970.77
2022-10-08T06:24:11.340Z,97967.76
2022-10-08T06:26:42.448Z,97964.94
2022-10-08T06:29:18.155Z,97959.97
2022-10-08T06:31:47.005Z,97958.19
2022-10-08T06:34:15.458Z,97958.92
2022-10-08T06:36:43.300Z,97960.82
2022-10-08T06:39:13.412Z,97964.63
2022-10-08T06:41:41.835Z,97963.36
2022-10-08T06:44:13.434Z,97960.95
2022-10-08T06:46:42.688Z,97961.48
2022-10-08T06:49:11.699Z,97966.43
2022-10-08T06:51:39.724Z,97966.40
2022-10-08T06:54:08.655Z,97967.64
2022-10-08T06:56:38.299Z,97967.88
2022-10-08T06:59:07.884Z,97970.14
2022-10-08T07:01:36.482Z,97967.27
2022-10-08T07:04:05.694Z,97967.55
2022-10-08T07:06:34.711Z,97964.25
2022-10-08T07:09:04.807Z,97965.42
2022-10-08T07:11:33.805Z,97965.27
2022-10-08T07:14:02.211Z,97958.83
2022-10-08T07:16:30.561Z,97955.80
2022-10-08T07:18:58.877Z,97957.59
2022-10-08T07:21:28.943Z,97958.05
2022-10-08T07:23:59.620Z,97949.95
2022-10-08T07:26:30.677Z,97954.33
2022-10-08T07:29:13.262Z,97953.80
2022-10-08T07:31:41.158Z,97951.27
2022-10-08T07:34:13.064Z,97953.52
2022-10-08T07:36:41.426Z,97947.61
2022-10-08T07:39:14.928Z,97950.73
2022-10-08T07:41:42.818Z,97944.61
2022-10-08T07:44:12.154Z,97947.23
2022-10-08T07:46:46.021Z,97944.70
2022-10-08T07:49:13.688Z,97943.30
2022-10-08T07:51:44.330Z,97943.79
2022-10-08T07:54:15.411Z,97940.64
2022-10-08T07:56:43.452Z,97939.69
2022-10-08T07:59:15.090Z,97939.10
2022-10-08T08:01:44.069Z,97939.73
2022-10-08T08:04:12.083Z,97935.85
2022-10-08T08:06:45.567Z,97932.86
2022-10-08T08:09:14.447Z,97932.05
2022-10-08T08:11:42.476Z,97934.64
2022-10-08T08:14:10.516Z,97933.40
2022-10-08T08:16:39.303Z,97936.64
2022-10-08T08:19:07.423Z,97934.98
2022-10-08T08:21:38.024Z,97935.92
2022-10-08T08:24:09.736Z,97933.97
2022-10-08T08:26:39.436Z,97939.00
2022-10-08T08:29:15.990Z,97933.77
2022-10-08T08:31:46.233Z,97934.71
2022-10-08T08:34:22.540Z,97931.55
2022-10-08T08:36:53.661Z,97928.94
2022-10-08T08:39:26.706Z,97928.43
2022-10-08T08:42:03.219Z,97922.16
2022-10-08T08:44:39.302Z,97922.35
2022-10-08T08:47:16.286Z,97917.56
2022-10-08T08:49:49.601Z,97919.61
2022-10-08T08:52:23.207Z,97915.90
2022-10-08T08:54:53.433Z,97914.23
2022-10-08T08:57:42.579Z,97914.23
2022-10-08T09:00:18.689Z,97905.50
2022-10-08T09:03:25.093Z,97903.09
2022-10-08T09:05:57.631Z,97901.61
2022-10-08T09:08:37.626Z,97895.30
2022-10-08T09:11:05.576Z,97892.93
2022-10-08T09:13:39.987Z,97886.63
2022-10-08T09:16:12.746Z,97881.71
2022-10-08T09:18:45.197Z,97882.02
2022-10-08T09:21:13.237Z,97882.05
2022-10-08T09:23:41.255Z,97879.21
2022-10-08T09:26:24.586Z,97877.98
2022-10-08T09:28:55.119Z,97873.80
2022-10-08T09:31:48.077Z,97874.00
2022-10-08T09:34:20.090Z,97863.93
2022-10-08T09:36:52.541Z,97857.65
2022-10-08T09:39:23.443Z,97853.90
2022-10-08T09:42:10.382Z,97852.16
2022-10-08T09:44:56.887Z,97849.72
2022-10-08T09:47:27.517Z,97850.59
2022-10-08T09:50:19.172Z,97845.16
2022-10-08T09:52:50.688Z,97842.20
2022-10-08T09:55:31.669Z,97840.32
2022-10-08T09:58:04.275Z,97841.19
2022-10-08T10:00:35.603Z,97834.20
2022-10-08T10:03:06.477Z,97829.20
2022-10-08T10:05:36.895Z,97823.91
2022-10-08T10:08:07.086Z,97823.29
2022-10-08T10:10:41.844Z,97823.23
2022-10-08T10:13:34.991Z,97820.47
2022-10-08T10:16:06.791Z,97816.94
2022-10-08T10:18:42.815Z,97812.52
2022-10-08T10:21:16.303Z,97806.41
2022-10-08T10:24:01.084Z,97804.39
2022-10-08T10:26:35.789Z,97800.94
2022-10-08T10:29:17.156Z,97794.33
2022-10-08T10:32:06.767Z,97792.20
2022-10-08T10:34:39.952Z,97787.86
2022-10-08T10:37:18.565Z,97784.80
2022-10-08T10:39:53.561Z,97784.25
2022-10-08T10:42:41.363Z,97778.80
2022-10-08T10:45:25.958Z,97770.27
2022-10-08T10:47:54.485Z,97760.27
2022-10-08T10:50:38.111Z,97756.59
2022-10-08T10:53:11.836Z,97748.83
2022-10-08T10:56:16.045Z,97749.83
2022-10-08T10:58:43.896Z,97746.08
2022-10-08T11:01:12.373Z,97749.00
2022-10-08T11:04:13.007Z,97742.78
2022-10-08T11:06:55.085Z,97739.80
2022-10-08T11:09:54.329Z,97738.36
2022-10-08T11:12:29.919Z,97735.85
2022-10-08T11:15:38.488Z,97734.86
2022-10-08T11:18:22.996Z,97730.25
2022-10-08T11:20:53.733Z,97726.92
2022-10-08T11:23:39.652Z,97719.80
2022-10-08T11:26:35.288Z,97719.58
2022-10-08T11:29:18.397Z,97712.95
2022-10-08T11:31:49.867Z,97709.80
2022-10-08T11:34:23.859Z,97707.02
2022-10-08T11:37:13.097Z,97702.95
2022-10-08T11:39:56.610Z,97697.78
2022-10-08T11:42:56.802Z,97697.76
2022-10-08T11:45:24.750Z,97698.24
2022-10-08T11:47:56.149Z,97695.52
2022-10-08T11:50:30.225Z,97694.11
2022-10-08T11:53:15.444Z,97695.52
2022-10-08T11:55:54.438Z,97690.80
2022-10-08T11:58:33.677Z,97690.46
2022-10-08T12:01:11.374Z,97688.80
2022-10-08T12:03:41.661Z,97684.20
2022-10-08T12:06:28.442Z,97678.36
2022-10-08T12:09:01.496Z,97679.47
2022-10-08T12:11:37.033Z,97675.72
2022-10-08T12:14:15.579Z,97671.77
2022-10-08T12:16:55.748Z,97667.42
2022-10-08T12:19:38.737Z,97666.73
2022-10-08T12:22:16.423Z,97657.61
2022-10-08T12:24:49.633Z,97654.46
2022-10-08T12:27:18.712Z,97653.46
2022-10-08T12:30:01.823Z,97651.77
2022-10-08T12:32:41.651Z,97652.47
2022-10-08T12:35:29.504Z,97651.36
2022-10-08T12:38:02.694Z,97649.63
2022-10-08T12:41:06.585Z,97649.31
2022-10-08T12:43:46.696Z,97647.77
2022-10-08T12:46:50.473Z,97646.47
2022-10-08T12:49:32.867Z,97640.90
2022-10-08T12:52:12.702Z,97637.70
2022-10-08T12:54:48.293Z,97637.45
2022-10-08T12:57:24.244Z,97633.54
2022-10-08T12:59:53.880Z,97632.58
2022-10-08T13:02:41.964Z,97631.76
2022-10-08T13:05:30.702Z,97629.23
2022-10-08T13:07:59.253Z,97624.11
2022-10-08T13:10:29.728Z,97623.03
2022-10-08T13:13:06.910Z,97626.27
2022-10-08T13:15:35.007Z,97623.14
2022-10-08T13:18:14.927Z,97622.16
2022-10-08T13:20:57.331Z,97618.74
2022-10-08T13:23:37.657Z,97614.89
2022-10-08T13:26:44.007Z,97614.23
2022-10-08T13:29:17.911Z,97611.92
2022-10-08T13:31:52.458Z,97613.34
2022-10-08T13:34:20.839Z,97609.93
2022-10-08T13:36:53.095Z,97608.15
2022-10-08T13:39:23.410Z,97608.34
2022-10-08T13:41:57.633Z,97609.38
2022-10-08T13:44:27.610Z,97606.04
2022-10-08T13:46:58.922Z,97604.60
2022-10-08T13:49:29.906Z,97603.90
2022-10-08T13:51:58.914Z,97598.30
2022-10-08T13:54:30.676Z,97601.37
2022-10-08T13:56:59.497Z,97604.59
2022-10-08T13:59:30.630Z,97605.23
2022-10-08T14:01:58.929Z,97600.83
2022-10-08T14:04:27.262Z,97602.36
2022-10-08T14:06:57.825Z,97599.16
2022-10-08T14:09:28.917Z,97595.45
2022-10-08T14:12:01.360Z,97591.90
2022-10-08T14:14:29.352Z,97591.27
2022-10-08T14:16:57.252Z,97592.55
2022-10-08T14:19:25.087Z,97590.13
2022-10-08T14:21:55.776Z,97587.00
2022-10-08T14:24:23.727Z,97585.98
2022-10-08T14:26:51.769Z,97583.50
2022-10-08T14:29:19.531Z,97579.95
2022-10-08T14:31:47.468Z,97578.91
2022-10-08T14:34:15.423Z,97578.73
2022-10-08T14:36:43.485Z,97578.23
2022-10-08T14:39:11.592Z,97571.15
2022-10-08T14:41:40.952Z,97574.47
2022-10-08T14:44:08.733Z,97573.59
2022-10-08T14:46:36.712Z,97575.36
2022-10-08T14:49:05.443Z,97578.14
2022-10-08T14:51:38.602Z,97578.07
2022-10-08T14:54:10.809Z,97574.82
2022-10-08T14:56:39.046Z,97571.38
2022-10-08T14:59:15.224Z,97571.74
2022-10-08T15:01:43.471Z,97575.60
2022-10-08T15:04:14.810Z,97574.40
2022-10-08T15:06:43.110Z,97570.70
2022-10-08T15:09:14.506Z,97570.78
2022-10-08T15:11:43.244Z,97572.61
2022-10-08T15:14:11.038Z,97573.80
2022-10-08T15:16:39.733Z,97572.86
2022-10-08T15:19:08.354Z,97573.58
2022-10-08T15:21:36.488Z,97575.20
2022-10-08T15:24:04.555Z,97576.53
2022-10-08T15:26:32.777Z,97578.23
2022-10-08T15:29:03.028Z,97582.20
2022-10-08T15:31:31.063Z,97586.08
2022-10-08T15:34:01.970Z,97582.18
2022-10-08T15:36:32.943Z,97584.88
2022-10-08T15:39:07.739Z,97585.42
2022-10-08T15:41:37.648Z,97585.77
2022-10-08T15:44:26.564Z,97584.99
2022-10-08T15:46:59.859Z,97585.95
2022-10-08T15:49:31.845Z,97588.45
2022-10-08T15:52:00.288Z,97588.56
2022-10-08T15:54:28.276Z,97584.37
2022-10-08T15:56:56.227Z,97583.61
2022-10-08T15:59:26.997Z,97583.64
2022-10-08T16:01:54.968Z,97585.42
2022-10-08T16:04:22.880Z,97584.85
2022-10-08T16:06:51.727Z,97589.75
2022-10-08T16:09:21.844Z,97589.95
2022-10-08T16:11:50.955Z,97589.23
2022-10-08T16:14:21.762Z,97587.79
2022-10-08T16:16:50.566Z,97590.39
2022-10-08T16:19:21.473Z,97591.85
2022-10-08T16:21:52.728Z,97592.95
2022-10-08T16:24:20.832Z,97591.59
2022-10-08T16:26:49.022Z,97589.39
2022-10-08T16:29:18.395Z,97594.89
2022-10-08T16:31:47.317Z,97594.67
2022-10-08T16:34:18.272Z,97599.83
2022-10-08T16:36:48.414Z,97599.85
2022-10-08T16:39:18.734Z,97601.63
2022-10-08T16:41:47.897Z,97605.54
2022-10-08T16:44:18.758Z,97607.27
2022-10-08T16:46:53.235Z,97611.00
2022-10-08T16:49:27.092Z,97613.70
2022-10-08T16:52:03.381Z,97616.81
2022-10-08T16:54:31.694Z,97617.30
2022-10-08T16:56:59.923Z,97615.29
2022-10-08T16:59:29.534Z,97617.55
2022-10-08T17:01:59.438Z,97620.63
2022-10-08T17:04:29.245Z,97624.97
2022-10-08T17:06:57.554Z,97625.05
2022-10-08T17:09:25.361Z,97620.87
2022-10-08T17:11:53.575Z,97619.17
2022-10-08T17:14:24.668Z,97623.58
2022-10-08T17:16:52.865Z,97626.17
2022-10-08T17:19:20.766Z,97626.94
2022-10-08T17:21:48.636Z,97631.33
2022-10-08T17:24:16.655Z,97631.34
2022-10-08T17:26:44.547Z,97628.41
2022-10-08T17:29:13.016Z,97630.81
2022-10-08T17:31:41.739Z,97629.36
2022-10-08T17:34:11.699Z,97628.33
2022-10-08T17:36:42.736Z,97628.48
2022-10-08T17:39:13.612Z,97628.92
2022-10-08T17:41:43.253Z,97626.91
2022-10-08T17:44:12.149Z,97627.75
2022-10-08T17:46:47.003Z,97625.56
2022-10-08T17:49:17.241Z,97628.65
2022-10-08T17:51:46.159Z,97630.45
2022-10-08T17:54:17.536Z,97629.86
2022-10-08T17:56:46.426Z,97630.10
2022-10-08T17:59:16.414Z,97633.02
2022-10-08T18:01:45.794Z,97626.85
2022-10-08T18:04:16.504Z,97628.89
2022-10-08T18:06:46.658Z,97626.18
2022-10-08T18:09:18.563Z,97623.36
2022-10-08T18:11:50.928Z,97622.73
2022-10-08T18:14:20.295Z,97625.39
2022-10-08T18:16:48.945Z,97624.70
2022-10-08T18:19:18.406Z,97623.88
2022-10-08T18:21:46.836Z,97625.06
2022-10-08T18:24:16.247Z,97621.67
2022-10-08T18:26:44.510Z,97619.45
2022-10-08T18:29:16.171Z,97618.11
2022-10-08T18:31:45.015Z,97616.35
2022-10-08T18:34:16.592Z,97613.39
2022-10-08T18:36:46.169Z,97613.60
2022-10-08T18:39:17.852Z,97619.91
2022-10-08T18:41:48.032Z,97621.41
2022-10-08T18:44:24.566Z,97623.02
2022-10-08T18:46:52.933Z,97621.92
2022-10-08T18:49:30.456Z,97625.23
2022-10-08T18:51:59.053Z,97627.10
2022-10-08T18:54:27.468Z,97630.61
2022-10-08T18:56:56.840Z,97626.98
2022-10-08T18:59:24.765Z,97626.96
2022-10-08T19:01:56.981Z,97628.63
2022-10-08T19:04:32.741Z,97628.30
2022-10-08T19:07:00.697Z,97632.14
2022-10-08T19:09:28.923Z,97632.70
2022-10-08T19:11:57.867Z,97635.41
2022-10-08T19:14:25.971Z,97631.19
2022-10-08T19:17:01.591Z,97632.14
2022-10-08T19:19:31.798Z,97629.81
2022-10-08T19:22:01.436Z,97628.14
2022-10-08T19:24:29.475Z,97627.27
2022-10-08T19:27:01.461Z,97634.58
2022-10-08T19:29:33.406Z,97638.64
2022-10-08T19:32:03.633Z,97642.18
2022-10-08T19:34:31.632Z,97641.89
2022-10-08T19:36:59.504Z,97644.36
2022-10-08T19:39:30.968Z,97647.77
2022-10-08T19:41:59.020Z,97651.13
2022-10-08T19:44:26.996Z,97650.59
2022-10-08T19:46:54.970Z,97652.16
2022-10-08T19:49:24.225Z,97656.55
2022-10-08T19:51:53.790Z,97658.86
2022-10-08T19:54:21.819Z,97657.08
2022-10-08T19:56:49.806Z,97656.20
2022-10-08T19:59:18.604Z,97652.02
2022-10-08T20:01:46.749Z,97652.84
2022-10-08T20:04:16.811Z,97655.75
2022-10-08T20:06:44.747Z,97656.94
2022-10-08T20:09:14.387Z,97658.14
2022-10-08T20:11:45.205Z,97660.84
2022-10-08T20:14:14.486Z,97657.40
2022-10-08T20:16:43.472Z,97654.61
2022-10-08T20:19:19.410Z,97654.40
2022-10-08T20:21:49.331Z,97654.58
2022-10-08T20:24:19.033Z,97650.90
2022-10-08T20:26:49.289Z,97651.64
2022-10-08T20:29:20.050Z,97654.80
2022-10-08T20:31:50.766Z,97657.61
2022-10-08T20:34:21.203Z,97657.27
2022-10-08T20:36:50.191Z,97655.05
2022-10-08T20:39:19.874Z,97657.48
2022-10-08T20:41:48.151Z,97655.89
2022-10-08T20:44:16.864Z,97656.97
2022-10-08T20:46:44.790Z,97659.06
2022-10-08T20:49:13.397Z,97656.92
2022-10-08T20:51:42.849Z,97659.52
2022-10-08T20:54:13.678Z,97659.80
2022-10-08T20:56:42.893Z,97663.83
2022-10-08T20:59:16.828Z,97665.98
2022-10-08T21:01:45.507Z,97670.67
2022-10-08T21:04:13.602Z,97673.92
2022-10-08T21:06:46.600Z,97675.02
2022-10-08T21:09:16.934Z,97679.73
2022-10-08T21:11:48.120Z,97678.30
2022-10-08T21:14:22.635Z,97678.44
2022-10-08T21:16:51.361Z,97680.29
2022-10-08T21:19:22.259Z,97679.67
2022-10-08T21:21:50.848Z,97678.74
2022-10-08T21:24:18.755Z,97675.00
2022-10-08T21:26:46.988Z,97672.60
2022-10-08T21:29:15.454Z,97669.00
2022-10-08T21:31:43.415Z,97670.64
2022-10-08T21:34:13.059Z,97668.33
2022-10-08T21:36:41.788Z,97672.14
2022-10-08T21:39:15.780Z,97672.18
2022-10-08T21:41:43.767Z,97664.48
2022-10-08T21:44:12.314Z,97667.75
2022-10-08T21:46:42.241Z,97664.90
2022-10-08T21:49:16.961Z,97662.04
2022-10-08T21:51:45.063Z,97660.73
2022-10-08T21:54:14.106Z,97658.28
2022-10-08T21:56:43.080Z,97654.77
2022-10-08T21:59:14.160Z,97658.54
2022-10-08T22:01:47.865Z,97659.40
2022-10-08T22:04:17.425Z,97657.84
2022-10-08T22:06:48.705Z,97656.28
2022-10-08T22:09:20.837Z,97653.95
2022-10-08T22:11:49.706Z,97653.26
2022-10-08T22:14:18.321Z,97652.30
2022-10-08T22:16:46.977Z,97652.05
2022-10-08T22:19:16.033Z,97651.30
2022-10-08T22:21:44.816Z,97652.23
2022-10-08T22:24:12.643Z,97651.73
2022-10-08T22:26:43.945Z,97648.26
2022-10-08T22:29:12.156Z,97646.98
2022-10-08T22:31:40.875Z,97647.27
2022-10-08T22:34:09.032Z,97646.63
2022-10-08T22:36:40.410Z,97650.63
2022-10-08T22:39:09.462Z,97649.89
2022-10-08T22:41:37.749Z,97651.19
2022-10-08T22:44:06.345Z,97652.60
2022-10-08T22:46:37.906Z,97656.03
2022-10-08T22:49:11.009Z,97657.10
2022-10-08T22:51:39.693Z,97651.90
2022-10-08T22:54:07.963Z,97653.69
2022-10-08T22:56:37.142Z,97650.65
2022-10-08T22:59:05.093Z,97651.95
2022-10-08T23:01:32.985Z,97651.86
2022-10-08T23:04:00.902Z,97653.23
2022-10-08T23:06:32.087Z,97657.42
2022-10-08T23:09:03.449Z,97658.54
2022-10-08T23:11:31.943Z,97662.30
2022-10-08T23:14:01.029Z,97657.48
2022-10-08T23:16:31.299Z,97658.66
2022-10-08T23:19:01.573Z,97660.95
2022-10-08T23:21:30.318Z,97662.80
2022-10-08T23:23:59.512Z,97663.16
2022-10-08T23:26:28.752Z,97664.83
2022-10-08T23:28:59.680Z,97663.77
2022-10-08T23:31:30.458Z,97659.85
2022-10-08T23:34:00.956Z,97661.61
2022-10-08T23:36:32.326Z,97658.77
2022-10-08T23:39:00.323Z,97660.63
2022-10-08T23:41:29.113Z,97660.98
2022-10-08T23:43:58.727Z,97662.66
2022-10-08T23:46:28.958Z,97660.19
2022-10-08T23:48:58.219Z,97660.35
2022-10-08T23:51:34.198Z,97657.70
2022-10-08T23:54:02.344Z,97654.83
2022-10-08T23:56:30.824Z,97649.71
2022-10-08T23:58:59.084Z,97649.76
